Airfield :
LOGIN :

Register | Disclaimer

   EN    FR    IT 

 










Legend :    VFR   Marginal VFR   IFR   Intensive IFR   Very Intensive IFR
Visi :
Ceiling :
>= 8 km
>= 3000ft
5 to 8 km
1000 to 3000 ft
1500m to 5 km
500 to 1000 ft
800 to 1500m
200 to 500 ft
< 800m
< 200 ft
Symbols :   Thunderstorms  Fog  Heavy snow  Heavy precipitations  Wind > 20 kt
SIGMETs :     Misc.  Thunderstorms  Icing  Turbulence  Mountain Waves  Volcanic Ashes






- Airport Elevation : 52 ft
- IATA code : RNN


EKRN - Bornholm Ronne

CURRENT METAR :
  • 281220Z AUTO 36007KT 9999 BKN089/// 11/M06 Q1019

EXPIRED METARs :
  • 281150Z AUTO 33005KT 290V020 9999 OVC080/// 10/M03 Q1019
  • 281120Z AUTO 02007KT 350V050 9999 BKN082/// 11/M03 Q1020
  • 281050Z AUTO 03005KT 350V080 9999 BKN088/// 12/M07 Q1020
  • 281020Z AUTO 04008KT 9999 OVC090/// 11/M04 Q1020
  • 280950Z AUTO 02005KT 340V040 9999 OVC097/// 11/M07 Q1020

TAF TAF EKRN
Valid from the 28 at 12:00 until the 28 at 21:00 UTC


281122Z 2812/2821 03008KT CAVOK



MET'MAP, your aeronautical weather chart ! - Copyright ORBIFLY December 2007 - Disclaimer

ORBIFLY MET'MAP TEAM :

Programming & Development : Alexandra Zaïnal
Concept & original design : Baudouin d'Aumeries
Assistance for programming : Marc-Olivier Méhu
Technical & hardware support : Manuel Goepfert

Contact : metmap@orbifly.com




SOURCES & CREDITS :

   NOAA